^^

Nearby METAR Reports

 

EGHH - Bournemouth Airp, United Kingdom
Distance from station: S 10mi, 17km
Updated: 28/02/2020 07:50
Light rain, Mostly cloudy
Light rain, Mostly cloudy
 Wind from S
Wind: S 20 mph , 31 km/h
Temperature: 6°C
Wind Chill: 1°C
Dew Point: 4°C
Humidity: 87%
Barometer: 1009 hPa
Summary: Light rain
Clouds: Mostly cloudy
Visibility: 6 miles , 10 km
Cloud details: Partly cloudy 396 m
Mostly cloudy 610 m
2020/02/28 07:50 EGHH 280750Z 19017KT 9999 -RA SCT013 BKN020 06/04 Q1009
EGDM - Boscombe Down, United Kingdom
Distance from station: N 16mi, 26km
Updated: 28/02/2020 07:50
Rain, Overcast
Rain, Overcast
 Wind from S
Wind: S 16 mph , 26 km/h
Temperature: 5°C
Wind Chill: 1°C
Dew Point: 4°C
Humidity: 93%
Barometer: 1008 hPa
Summary: Rain
Clouds: Overcast
Visibility: 5 miles , 8 km
Cloud details: Mostly cloudy 274 m
Overcast 762 m
2020/02/28 07:50 EGDM 280750Z 18014KT 8000 RA BKN009 OVC025 05/04 Q1008 BECMG 7000 RADZ RMK GRN BECMG GRN
 
EGVP - Middle Wallop, United Kingdom
Distance from station: NE 17mi, 27km
Updated: 28/02/2020 07:50
Rain, Overcast
Rain, Overcast
 Wind from S
Wind: S 15 mph , 24 km/h
Temperature: 5°C
Wind Chill: 1°C
Dew Point: 4°C
Humidity: 93%
Barometer: 1009 hPa
Summary: Rain
Clouds: Overcast
Visibility: 6 miles , 10 km
Cloud details: Mostly cloudy 366 m
Mostly cloudy 823 m
Overcast 1829 m
2020/02/28 07:50 EGVP 280750Z 17013KT 9999 RA BKN012 BKN027 OVC060 05/04 Q1009 TEMPO 5000 RMK GRN TEMPO GRN
EGHI - Southampton Wx C, United Kingdom
Distance from station: E 19mi, 31km
Updated: 28/02/2020 07:50
Light rain, Partly cloudy
Light rain, Partly cloudy
 Wind from S
Wind: S 15 mph , 24 km/h
Temperature: 6°C
Wind Chill: 2°C
Dew Point: 4°C
Humidity: 87%
Barometer: 1011 hPa
Summary: Light rain
Clouds: Partly cloudy
Visibility: 6 miles , 10 km
Cloud details: Partly cloudy 1067 m
2020/02/28 07:50 EGHI 280750Z 18013KT 140V220 9999 -RA SCT035 06/04 Q1011
 
EGDY - Yeovilton (navy), United Kingdom
Distance from station: W 36mi, 58km
Updated: 28/02/2020 07:50
Partly cloudy
Partly cloudy
 Wind from SSE
Wind: SSE 17 mph , 28 km/h
Temperature: 6°C
Wind Chill: 2°C
Dew Point: 4°C
Humidity: 87%
Barometer: 1007 hPa
Clouds: Partly cloudy
Visibility: 6 miles , 10 km
Cloud details: Few Clouds 427 m
Partly cloudy 610 m
2020/02/28 07:50 EGDY 280750Z 16015KT 9999 FEW014 SCT020 06/04 Q1007 BECMG -RA SCT012 RMK WHT BECMG GRN
EGUO - Colerne Raf, United Kingdom
Distance from station: NNW 41mi, 66km
Updated: 14/02/2019 22:50
NOT Current
Clear
Clear
 Wind from ENE
Wind: ENE 1 mph , 2 km/h
Temperature: 1°C
Dew Point: 0°C
Humidity: 93%
Barometer: 1029 hPa
Summary: Clear
Visibility: greater than 7 miles , 10 km
2019/02/14 22:50 EGUO 142250Z 06001KT CAVOK 01/00 Q1029 BLU NOSIG
 
EGVO - Odiham Raf, United Kingdom
Distance from station: ENE 42mi, 68km
Updated: 28/02/2020 07:50
Light rain, Overcast
Light rain, Overcast
 Wind from SSE
Wind: SSE 13 mph , 20 km/h
Temperature: 4°C
Wind Chill: -1°C
Dew Point: 3°C
Humidity: 93%
Barometer: 1010 hPa
Summary: Light rain
Clouds: Overcast
Visibility: 6 miles , 10 km
Cloud details: Partly cloudy 579 m
Overcast 1524 m
2020/02/28 07:50 EGVO 280750Z 15011KT 9999 -RA SCT019 OVC050 04/03 Q1010 BECMG 17018G28KT BKN010 RMK WHT BECMG GRN
EGGD - Bristol/Lulsgate, United Kingdom
Distance from station: NW 50mi, 81km
Updated: 28/02/2020 07:50
Light rain, Thunderstorm
Light rain, Thunderstorm
 Wind from SSE
Wind: SSE 17 mph , 28 km/h
Temperature: 4°C
Wind Chill: -1°C
Dew Point: 3°C
Humidity: 93%
Barometer: 1006 hPa
Summary: Light rain
Clouds: Thunderstorm
Visibility: 6 miles , 9 km
Cloud details: Mostly cloudy 213 m
Overcast 335 m
2020/02/28 07:50 EGGD 280750Z AUTO 15015KT 9000 -RA BKN007/// OVC011/// //////CB 04/03 Q1006